createdAt,value
2023-12-19T00:01:49.366Z,31.70
2023-12-19T00:04:17.989Z,30.90
2023-12-19T00:06:46.518Z,35.10
2023-12-19T00:09:15.079Z,40.67
2023-12-19T00:11:43.534Z,34.95
2023-12-19T00:14:11.929Z,49.85
2023-12-19T00:16:40.438Z,36.95
2023-12-19T00:19:10.773Z,36.17
2023-12-19T00:21:39.480Z,32.33
2023-12-19T00:24:08.082Z,28.40
2023-12-19T00:26:36.658Z,33.88
2023-12-19T00:29:05.957Z,29.33
2023-12-19T00:31:34.828Z,31.85
2023-12-19T00:34:03.457Z,38.40
2023-12-19T00:36:32.154Z,37.47
2023-12-19T00:39:00.915Z,36.03
2023-12-19T00:41:29.465Z,39.90
2023-12-19T00:43:57.968Z,37.47
2023-12-19T00:46:26.373Z,62.60
2023-12-19T00:48:55.977Z,39.45
2023-12-19T00:51:24.551Z,37.67
2023-12-19T00:53:53.035Z,34.80
2023-12-19T00:56:22.793Z,40.80
2023-12-19T00:58:51.347Z,43.25
2023-12-19T01:01:24.626Z,45.83
2023-12-19T01:03:53.306Z,38.88
2023-12-19T01:06:21.935Z,41.45
2023-12-19T01:08:50.618Z,40.65
2023-12-19T01:11:19.338Z,41.78
2023-12-19T01:13:47.729Z,52.70
2023-12-19T01:16:17.156Z,45.13
2023-12-19T01:18:45.761Z,34.10
2023-12-19T01:21:14.738Z,48.65
2023-12-19T01:23:43.928Z,35.45
2023-12-19T01:26:16.475Z,41.03
2023-12-19T01:28:48.985Z,51.88
2023-12-19T01:31:17.740Z,48.22
2023-12-19T01:33:46.421Z,38.42
2023-12-19T01:36:14.938Z,48.92
2023-12-19T01:38:43.363Z,44.20
2023-12-19T01:41:12.908Z,45.65
2023-12-19T01:43:41.432Z,43.83
2023-12-19T01:46:15.314Z,40.97
2023-12-19T01:48:44.424Z,59.20
2023-12-19T01:51:13.748Z,42.53
2023-12-19T01:53:45.661Z,46.22
2023-12-19T01:56:16.991Z,64.03
2023-12-19T01:58:46.843Z,42.83
2023-12-19T02:01:17.462Z,52.00
2023-12-19T02:03:47.313Z,39.78
2023-12-19T02:06:18.832Z,38.13
2023-12-19T02:08:47.503Z,44.30
2023-12-19T02:11:16.141Z,48.60
2023-12-19T02:13:46.284Z,50.75
2023-12-19T02:16:14.827Z,34.08
2023-12-19T02:18:44.549Z,61.92
2023-12-19T02:21:13.165Z,53.53
2023-12-19T02:23:41.624Z,38.15
2023-12-19T02:26:10.623Z,41.13
2023-12-19T02:28:39.063Z,42.88
2023-12-19T02:31:07.523Z,45.75
2023-12-19T02:33:36.217Z,31.80
2023-12-19T02:36:05.035Z,58.47
2023-12-19T02:38:33.502Z,41.97
2023-12-19T02:41:01.909Z,41.63
2023-12-19T02:43:30.419Z,47.85
2023-12-19T02:45:58.912Z,57.67
2023-12-19T02:48:27.511Z,44.13
2023-12-19T02:50:56.085Z,46.30
2023-12-19T02:53:24.602Z,32.80
2023-12-19T02:55:53.012Z,32.75
2023-12-19T02:58:21.836Z,43.05
2023-12-19T03:00:50.389Z,45.53
2023-12-19T03:03:18.889Z,54.72
2023-12-19T03:05:47.425Z,43.63
2023-12-19T03:08:16.000Z,41.20
2023-12-19T03:10:44.463Z,32.55
2023-12-19T03:13:12.966Z,49.70
2023-12-19T03:15:41.513Z,42.47
2023-12-19T03:18:10.333Z,39.03
2023-12-19T03:20:38.896Z,38.92
2023-12-19T03:23:07.349Z,37.20
2023-12-19T03:25:35.796Z,32.72
2023-12-19T03:28:04.817Z,41.47
2023-12-19T03:30:33.324Z,31.85
2023-12-19T03:33:01.883Z,42.92
2023-12-19T03:35:30.337Z,49.80
2023-12-19T03:37:59.249Z,33.55
2023-12-19T03:40:27.896Z,26.48
2023-12-19T03:42:56.381Z,29.95
2023-12-19T03:45:24.946Z,34.03
2023-12-19T03:47:53.577Z,27.92
2023-12-19T03:50:22.081Z,33.72
2023-12-19T03:52:50.944Z,24.02
2023-12-19T03:55:19.367Z,32.13
2023-12-19T03:57:47.831Z,27.10
2023-12-19T04:00:16.336Z,31.17
2023-12-19T04:02:44.971Z,35.03
2023-12-19T04:05:13.641Z,27.52
2023-12-19T04:07:42.090Z,35.63
2023-12-19T04:10:10.949Z,36.75
2023-12-19T04:12:39.573Z,47.28
2023-12-19T04:15:09.648Z,39.83
2023-12-19T04:17:38.185Z,36.47
2023-12-19T04:20:07.163Z,40.40
2023-12-19T04:22:35.707Z,44.45
2023-12-19T04:25:04.496Z,36.22
2023-12-19T04:27:33.332Z,41.90
2023-12-19T04:30:01.861Z,28.27
2023-12-19T04:32:30.354Z,55.03
2023-12-19T04:34:58.957Z,34.50
2023-12-19T04:37:27.485Z,41.88
2023-12-19T04:39:56.110Z,32.17
2023-12-19T04:42:25.406Z,40.80
2023-12-19T04:44:53.948Z,44.83
2023-12-19T04:47:22.550Z,39.78
2023-12-19T04:49:51.010Z,39.83
2023-12-19T04:52:20.131Z,32.65
2023-12-19T04:54:48.628Z,33.35
2023-12-19T04:57:17.067Z,29.20
2023-12-19T04:59:45.517Z,43.88
2023-12-19T05:02:13.948Z,35.92
2023-12-19T05:04:42.323Z,32.40
2023-12-19T05:07:11.762Z,31.42
2023-12-19T05:09:40.398Z,37.78
2023-12-19T05:12:08.920Z,35.40
2023-12-19T05:14:38.146Z,41.60
2023-12-19T05:17:07.391Z,45.40
2023-12-19T05:19:40.186Z,34.92
2023-12-19T05:22:12.567Z,44.55
2023-12-19T05:24:43.245Z,51.28
2023-12-19T05:27:11.797Z,48.45
2023-12-19T05:29:40.912Z,43.50
2023-12-19T05:32:09.439Z,37.10
2023-12-19T05:34:38.052Z,29.40
2023-12-19T05:37:06.695Z,42.70
2023-12-19T05:39:35.190Z,43.47
2023-12-19T05:42:04.275Z,35.33
2023-12-19T05:44:32.672Z,30.85
2023-12-19T05:47:01.192Z,51.05
2023-12-19T05:49:29.717Z,53.53
2023-12-19T05:51:59.071Z,33.72
2023-12-19T05:54:27.670Z,36.33
2023-12-19T05:56:56.136Z,36.45
2023-12-19T05:59:24.732Z,38.35
2023-12-19T06:01:53.240Z,27.33
2023-12-19T06:04:21.908Z,30.67
2023-12-19T06:06:50.581Z,29.10
2023-12-19T06:09:19.100Z,31.55
2023-12-19T06:11:47.532Z,47.63
2023-12-19T06:14:16.557Z,32.42
2023-12-19T06:16:45.193Z,29.55
2023-12-19T06:19:19.738Z,40.22
2023-12-19T06:21:48.211Z,28.70
2023-12-19T06:24:16.620Z,33.28
2023-12-19T06:26:47.542Z,36.70
2023-12-19T06:29:16.358Z,25.35
2023-12-19T06:31:50.437Z,36.75
2023-12-19T06:34:19.005Z,31.95
2023-12-19T06:36:47.548Z,28.63
2023-12-19T06:39:18.693Z,20.83
2023-12-19T06:41:47.119Z,34.17
2023-12-19T06:44:15.650Z,31.98
2023-12-19T06:46:46.511Z,35.50
2023-12-19T06:49:18.757Z,30.33
2023-12-19T06:51:49.786Z,31.83
2023-12-19T06:54:18.202Z,34.50
2023-12-19T06:56:46.664Z,33.13
2023-12-19T06:59:17.985Z,26.75
2023-12-19T07:01:46.554Z,34.83
2023-12-19T07:04:15.132Z,27.85
2023-12-19T07:06:46.068Z,24.80
2023-12-19T07:09:15.790Z,36.15
2023-12-19T07:11:44.316Z,25.48
2023-12-19T07:14:15.716Z,32.58
2023-12-19T07:16:44.773Z,21.35
2023-12-19T07:19:13.463Z,24.35
2023-12-19T07:21:47.242Z,27.75
2023-12-19T07:24:15.690Z,28.73
2023-12-19T07:26:44.175Z,21.02
2023-12-19T07:29:15.158Z,33.50
2023-12-19T07:31:43.616Z,19.35
2023-12-19T07:34:12.291Z,33.38
2023-12-19T07:36:43.221Z,22.75
2023-12-19T07:39:11.673Z,20.80
2023-12-19T07:41:40.203Z,39.17
2023-12-19T07:44:12.926Z,20.02
2023-12-19T07:46:42.505Z,21.50
2023-12-19T07:49:11.758Z,18.20
2023-12-19T07:51:42.977Z,18.38
2023-12-19T07:54:11.547Z,19.75
2023-12-19T07:56:45.871Z,20.65
2023-12-19T07:59:14.567Z,17.58
2023-12-19T08:01:51.071Z,17.42
2023-12-19T08:04:19.941Z,27.10
2023-12-19T08:06:48.750Z,21.58
2023-12-19T08:09:20.209Z,25.63
2023-12-19T08:11:49.296Z,17.10
2023-12-19T08:14:17.862Z,19.50
2023-12-19T08:16:48.733Z,16.77
2023-12-19T08:19:20.577Z,22.73
2023-12-19T08:21:58.472Z,14.15
2023-12-19T08:24:28.082Z,36.83
2023-12-19T08:26:56.541Z,38.72
2023-12-19T08:29:27.352Z,46.47
2023-12-19T08:31:55.778Z,46.65
2023-12-19T08:34:24.323Z,69.88
2023-12-19T08:36:55.395Z,85.22
2023-12-19T08:39:23.906Z,113.38
2023-12-19T08:41:52.336Z,54.80
2023-12-19T08:44:23.294Z,62.22
2023-12-19T08:46:51.686Z,31.08
2023-12-19T08:49:20.366Z,27.27
2023-12-19T08:51:49.571Z,29.20
2023-12-19T08:54:18.152Z,21.88
2023-12-19T08:56:46.999Z,21.15
2023-12-19T08:59:15.502Z,19.42
2023-12-19T09:01:44.050Z,22.30
2023-12-19T09:04:12.662Z,16.83
2023-12-19T09:06:41.257Z,20.98
2023-12-19T09:09:13.102Z,20.85
2023-12-19T09:11:42.198Z,31.70
2023-12-19T09:14:13.717Z,19.10
2023-12-19T09:16:43.854Z,25.48
2023-12-19T09:19:15.811Z,14.40
2023-12-19T09:21:44.778Z,14.75
2023-12-19T09:24:13.446Z,22.38
2023-12-19T09:26:41.930Z,16.92
2023-12-19T09:29:10.433Z,14.02
2023-12-19T09:31:39.088Z,12.25
2023-12-19T09:34:11.816Z,15.70
2023-12-19T09:36:50.604Z,14.30
2023-12-19T09:39:25.226Z,16.30
2023-12-19T09:41:54.597Z,14.00
2023-12-19T09:44:26.183Z,16.85
2023-12-19T09:49:25.335Z,11.70
2023-12-19T09:51:55.052Z,13.85
2023-12-19T09:54:24.474Z,8.70
2023-12-19T09:56:57.729Z,12.63
2023-12-19T09:59:27.740Z,10.95
2023-12-19T10:01:57.612Z,10.52
2023-12-19T10:04:26.266Z,11.25
2023-12-19T10:07:01.819Z,11.57
2023-12-19T10:09:30.531Z,12.65
2023-12-19T10:12:06.975Z,12.15
2023-12-19T10:14:35.513Z,11.25
2023-12-19T10:17:08.188Z,16.45
2023-12-19T10:19:39.584Z,9.15
2023-12-19T10:22:09.912Z,10.40
2023-12-19T10:24:39.478Z,12.18
2023-12-19T10:27:08.316Z,14.93
2023-12-19T10:29:40.249Z,10.52
2023-12-19T10:32:19.234Z,9.85
2023-12-19T10:34:56.429Z,10.20
2023-12-19T10:37:36.571Z,10.60
2023-12-19T10:40:20.921Z,11.85
2023-12-19T10:42:57.129Z,11.82
2023-12-19T10:45:26.185Z,11.38
2023-12-19T10:47:55.058Z,9.27
2023-12-19T10:50:24.080Z,10.88
2023-12-19T10:52:55.765Z,11.73
2023-12-19T10:55:28.625Z,8.43
2023-12-19T10:57:59.539Z,12.20
2023-12-19T11:00:28.711Z,10.52
2023-12-19T11:03:12.362Z,13.70
2023-12-19T11:05:49.905Z,13.80
2023-12-19T11:08:23.230Z,8.88
2023-12-19T11:11:03.687Z,10.82
2023-12-19T11:13:34.324Z,11.57
2023-12-19T11:16:20.755Z,15.02
2023-12-19T11:18:58.780Z,6.93
2023-12-19T11:21:43.326Z,9.65
2023-12-19T11:24:31.978Z,8.23
2023-12-19T11:27:19.937Z,11.30
2023-12-19T11:29:55.136Z,8.38
2023-12-19T11:32:30.357Z,7.25
2023-12-19T11:35:11.216Z,14.48
2023-12-19T11:37:47.298Z,9.77
2023-12-19T11:40:48.222Z,6.93
2023-12-19T11:43:29.003Z,8.88
2023-12-19T11:46:18.068Z,9.70
2023-12-19T11:48:51.001Z,6.82
2023-12-19T11:51:44.530Z,9.52
2023-12-19T11:54:14.474Z,6.57
2023-12-19T11:56:43.843Z,10.00
2023-12-19T11:59:12.861Z,7.85
2023-12-19T12:01:42.552Z,8.45
2023-12-19T12:04:12.151Z,6.90
2023-12-19T12:06:43.236Z,8.00
2023-12-19T12:09:11.963Z,8.43
2023-12-19T12:11:52.474Z,7.00
2023-12-19T12:14:22.838Z,7.82
2023-12-19T12:16:52.733Z,7.10
2023-12-19T12:19:23.819Z,7.32
2023-12-19T12:24:32.654Z,6.75
2023-12-19T12:27:12.243Z,8.30
2023-12-19T12:29:41.704Z,5.47
2023-12-19T12:32:10.574Z,7.75
2023-12-19T12:34:39.262Z,6.65
2023-12-19T12:37:08.212Z,7.35
2023-12-19T12:39:36.925Z,11.93
2023-12-19T12:42:07.126Z,7.30
2023-12-19T12:44:36.296Z,7.55
2023-12-19T12:47:06.859Z,6.35
2023-12-19T12:49:36.760Z,18.70
2023-12-19T12:52:05.894Z,9.55
2023-12-19T12:54:34.449Z,7.93
2023-12-19T12:57:13.196Z,6.95
2023-12-19T12:59:41.868Z,6.60
2023-12-19T13:02:10.589Z,11.05
2023-12-19T13:04:39.045Z,7.30
2023-12-19T13:07:07.659Z,5.57
2023-12-19T13:09:36.519Z,6.38
2023-12-19T13:12:05.208Z,8.30
2023-12-19T13:14:33.839Z,5.40
2023-12-19T13:17:02.877Z,11.82
2023-12-19T13:19:31.378Z,6.93
2023-12-19T13:22:00.033Z,6.40
2023-12-19T13:24:28.624Z,7.82
2023-12-19T13:26:57.966Z,7.85
2023-12-19T13:29:26.446Z,5.32
2023-12-19T13:31:55.046Z,5.72
2023-12-19T13:34:25.031Z,6.80
2023-12-19T13:36:53.822Z,8.52
2023-12-19T13:39:22.380Z,8.90
2023-12-19T13:41:53.325Z,6.13
2023-12-19T13:44:22.206Z,6.03
2023-12-19T13:46:51.658Z,7.30
2023-12-19T13:49:20.580Z,5.70
2023-12-19T13:51:49.294Z,7.18
2023-12-19T13:54:18.070Z,5.90
2023-12-19T13:56:46.630Z,7.10
2023-12-19T13:59:15.112Z,6.70
2023-12-19T14:01:43.990Z,9.27
2023-12-19T14:04:14.316Z,5.28
2023-12-19T14:06:45.579Z,8.82
2023-12-19T14:09:20.143Z,4.75
2023-12-19T14:11:49.309Z,11.23
2023-12-19T14:14:20.069Z,9.75
2023-12-19T14:16:48.606Z,6.03
2023-12-19T14:19:17.173Z,9.38
2023-12-19T14:21:46.491Z,8.10
2023-12-19T14:24:16.019Z,6.00
2023-12-19T14:26:45.609Z,7.10
2023-12-19T14:29:14.179Z,12.38
2023-12-19T14:31:45.806Z,10.20
2023-12-19T14:34:14.465Z,7.72
2023-12-19T14:36:47.252Z,6.63
2023-12-19T14:39:16.625Z,11.63
2023-12-19T14:41:48.099Z,9.40
2023-12-19T14:44:17.118Z,7.57
2023-12-19T14:46:45.727Z,7.10
2023-12-19T14:49:14.305Z,7.88
2023-12-19T14:51:43.075Z,8.48
2023-12-19T14:54:11.634Z,8.27
2023-12-19T14:56:40.180Z,8.95
2023-12-19T14:59:10.364Z,7.05
2023-12-19T15:01:39.023Z,6.85
2023-12-19T15:04:08.548Z,14.27
2023-12-19T15:06:38.845Z,13.95
2023-12-19T15:09:08.600Z,7.03
2023-12-19T15:11:37.498Z,7.50
2023-12-19T15:14:06.052Z,9.13
2023-12-19T15:16:34.848Z,7.13
2023-12-19T15:19:03.493Z,8.82
2023-12-19T15:21:32.040Z,7.38
2023-12-19T15:24:00.634Z,11.43
2023-12-19T15:26:29.105Z,10.52
2023-12-19T15:28:57.593Z,8.93
2023-12-19T15:31:26.208Z,7.90
2023-12-19T15:33:55.707Z,8.38
2023-12-19T15:36:24.245Z,9.07
2023-12-19T15:38:52.814Z,12.35
2023-12-19T15:41:22.044Z,8.20
2023-12-19T15:43:58.252Z,10.40
2023-12-19T15:46:34.462Z,7.88
2023-12-19T15:49:04.533Z,8.13
2023-12-19T15:51:33.613Z,9.05
2023-12-19T15:54:04.102Z,8.93
2023-12-19T15:56:33.756Z,10.20
2023-12-19T15:59:04.589Z,11.18
2023-12-19T16:01:33.612Z,11.00
2023-12-19T16:04:02.737Z,9.35
2023-12-19T16:06:32.569Z,9.43
2023-12-19T16:09:01.453Z,10.43
2023-12-19T16:11:30.224Z,8.00
2023-12-19T16:13:58.714Z,10.00
2023-12-19T16:16:27.251Z,10.63
2023-12-19T16:18:56.754Z,8.00
2023-12-19T16:21:25.962Z,8.90
2023-12-19T16:24:01.587Z,9.40
2023-12-19T16:26:33.267Z,8.85
2023-12-19T16:29:02.415Z,10.35
2023-12-19T16:31:33.060Z,11.05
2023-12-19T16:34:03.114Z,9.02
2023-12-19T16:36:32.024Z,12.38
2023-12-19T16:39:00.737Z,10.35
2023-12-19T16:41:30.124Z,10.95
2023-12-19T16:43:58.710Z,8.60
2023-12-19T16:46:32.873Z,22.30
2023-12-19T16:49:08.745Z,10.13
2023-12-19T16:51:37.734Z,13.30
2023-12-19T16:54:06.549Z,9.90
2023-12-19T16:56:36.725Z,9.40
2023-12-19T16:59:06.618Z,12.40
2023-12-19T17:01:35.218Z,15.00
2023-12-19T17:04:03.888Z,10.18
2023-12-19T17:06:32.791Z,12.38
2023-12-19T17:09:03.554Z,10.45
2023-12-19T17:11:31.973Z,8.50
2023-12-19T17:14:00.471Z,9.15
2023-12-19T17:16:29.189Z,10.23
2023-12-19T17:18:58.226Z,8.75
2023-12-19T17:21:26.717Z,12.65
2023-12-19T17:23:55.090Z,11.52
2023-12-19T17:26:25.563Z,10.95
2023-12-19T17:28:54.480Z,12.85
2023-12-19T17:31:23.051Z,11.63
2023-12-19T17:33:51.732Z,12.32
2023-12-19T17:36:22.314Z,13.52
2023-12-19T17:38:51.130Z,14.63
2023-12-19T17:41:20.411Z,17.83
2023-12-19T17:43:48.953Z,11.55
2023-12-19T17:46:18.383Z,14.45
2023-12-19T17:48:47.023Z,13.00
2023-12-19T17:51:15.638Z,13.73
2023-12-19T17:53:44.185Z,14.50
2023-12-19T17:56:12.724Z,22.55
2023-12-19T17:58:41.361Z,15.32
2023-12-19T18:01:10.341Z,15.80
2023-12-19T18:03:39.094Z,17.35
2023-12-19T18:06:07.671Z,20.40
2023-12-19T18:08:41.605Z,19.33
2023-12-19T18:11:10.052Z,18.13
2023-12-19T18:13:38.560Z,17.60
2023-12-19T18:16:07.609Z,18.40
2023-12-19T18:18:36.519Z,23.13
2023-12-19T18:21:05.248Z,20.58
2023-12-19T18:23:35.901Z,21.60
2023-12-19T18:26:06.800Z,28.88
2023-12-19T18:28:35.830Z,25.77
2023-12-19T18:31:04.608Z,24.40
2023-12-19T18:33:33.388Z,21.17
2023-12-19T18:36:02.818Z,23.45
2023-12-19T18:38:31.456Z,27.10
2023-12-19T18:40:59.899Z,25.27
2023-12-19T18:43:28.480Z,25.10
2023-12-19T18:45:57.035Z,24.95
2023-12-19T18:48:26.481Z,28.48
2023-12-19T18:50:54.943Z,24.75
2023-12-19T18:53:24.218Z,22.27
2023-12-19T18:55:52.678Z,26.02
2023-12-19T18:58:21.330Z,22.05
2023-12-19T19:00:50.291Z,23.65
2023-12-19T19:03:19.606Z,25.95
2023-12-19T19:05:48.758Z,25.98
2023-12-19T19:08:17.276Z,24.17
2023-12-19T19:10:45.993Z,25.10
2023-12-19T19:13:16.979Z,26.77
2023-12-19T19:15:45.824Z,25.65
2023-12-19T19:18:14.397Z,27.95
2023-12-19T19:20:43.701Z,30.13
2023-12-19T19:23:17.115Z,30.80
2023-12-19T19:25:46.616Z,33.45
2023-12-19T19:28:17.552Z,33.35
2023-12-19T19:30:48.373Z,28.80
2023-12-19T19:33:17.128Z,28.30
2023-12-19T19:35:45.636Z,38.53
2023-12-19T19:38:14.231Z,32.38
2023-12-19T19:40:44.607Z,28.10
2023-12-19T19:43:13.497Z,28.42
2023-12-19T19:45:42.122Z,34.15
2023-12-19T19:48:12.285Z,33.38
2023-12-19T19:50:42.618Z,33.88
2023-12-19T19:53:11.261Z,29.85
2023-12-19T19:55:40.019Z,28.58
2023-12-19T19:58:08.524Z,31.95
2023-12-19T20:00:38.161Z,33.42
2023-12-19T20:03:07.185Z,31.23
2023-12-19T20:05:36.018Z,30.58
2023-12-19T20:08:04.903Z,30.50
2023-12-19T20:10:33.351Z,29.88
2023-12-19T20:13:01.873Z,31.52
2023-12-19T20:15:30.333Z,32.13
2023-12-19T20:17:58.906Z,30.80
2023-12-19T20:20:27.331Z,27.27
2023-12-19T20:22:55.746Z,29.05
2023-12-19T20:25:24.340Z,28.38
2023-12-19T20:27:53.370Z,27.17
2023-12-19T20:30:22.099Z,33.17
2023-12-19T20:32:51.067Z,34.88
2023-12-19T20:35:19.809Z,30.70
2023-12-19T20:37:48.453Z,29.02
2023-12-19T20:40:19.025Z,26.95
2023-12-19T20:42:48.327Z,31.63
2023-12-19T20:45:17.272Z,30.13
2023-12-19T20:47:45.868Z,34.28
2023-12-19T20:50:14.500Z,32.95
2023-12-19T20:52:50.633Z,30.80
2023-12-19T20:55:25.558Z,35.97
2023-12-19T20:57:54.727Z,32.92
2023-12-19T21:00:26.428Z,30.35
2023-12-19T21:02:55.099Z,30.73
2023-12-19T21:05:23.731Z,37.40
2023-12-19T21:07:52.368Z,34.63
2023-12-19T21:10:21.067Z,30.08
2023-12-19T21:12:50.082Z,26.92
2023-12-19T21:15:18.800Z,32.85
2023-12-19T21:17:47.405Z,32.63
2023-12-19T21:20:16.065Z,24.42
2023-12-19T21:22:44.861Z,24.98
2023-12-19T21:25:13.991Z,24.63
2023-12-19T21:27:42.608Z,28.25
2023-12-19T21:30:11.611Z,21.33
2023-12-19T21:32:42.226Z,21.02
2023-12-19T21:35:11.486Z,21.90
2023-12-19T21:37:40.088Z,14.45
2023-12-19T21:40:09.097Z,12.35
2023-12-19T21:42:37.930Z,11.93
2023-12-19T21:45:06.903Z,15.18
2023-12-19T21:47:35.667Z,11.43
2023-12-19T21:50:04.858Z,10.25
2023-12-19T21:52:33.561Z,9.57
2023-12-19T21:55:04.520Z,12.02
2023-12-19T22:00:03.792Z,10.90
2023-12-19T22:02:32.307Z,16.27
2023-12-19T22:05:01.027Z,18.92
2023-12-19T22:07:29.985Z,9.23
2023-12-19T22:10:02.718Z,9.93
2023-12-19T22:12:32.416Z,15.63
2023-12-19T22:15:01.180Z,18.48
2023-12-19T22:17:29.754Z,15.75
2023-12-19T22:19:58.657Z,14.38
2023-12-19T22:22:27.400Z,14.38
2023-12-19T22:24:55.971Z,11.63
2023-12-19T22:27:24.523Z,19.67
2023-12-19T22:29:53.967Z,12.18
2023-12-19T22:32:22.563Z,19.00
2023-12-19T22:34:51.532Z,12.15
2023-12-19T22:37:20.038Z,18.23
2023-12-19T22:39:49.133Z,12.25
2023-12-19T22:42:17.602Z,17.38
2023-12-19T22:44:46.095Z,12.45
2023-12-19T22:47:15.262Z,11.40
2023-12-19T22:49:43.831Z,14.23
2023-12-19T22:52:12.405Z,10.32
2023-12-19T22:54:41.481Z,12.32
2023-12-19T22:57:10.154Z,10.20
2023-12-19T22:59:38.902Z,10.07
2023-12-19T23:02:07.690Z,13.88
2023-12-19T23:04:41.243Z,14.48
2023-12-19T23:07:09.917Z,20.20
2023-12-19T23:09:45.284Z,13.68
2023-12-19T23:12:14.514Z,16.35
2023-12-19T23:14:43.791Z,17.20
2023-12-19T23:17:12.630Z,24.23
2023-12-19T23:19:41.448Z,61.28
2023-12-19T23:22:10.166Z,77.43
2023-12-19T23:24:38.724Z,44.88
2023-12-19T23:27:07.206Z,38.42
2023-12-19T23:29:35.654Z,25.50
2023-12-19T23:32:04.560Z,22.17
2023-12-19T23:34:33.171Z,22.10
2023-12-19T23:37:01.657Z,56.28
2023-12-19T23:39:30.425Z,29.20
2023-12-19T23:41:59.226Z,19.55
2023-12-19T23:44:27.667Z,40.20
2023-12-19T23:46:56.144Z,14.50
2023-12-19T23:49:24.669Z,20.85
2023-12-19T23:51:53.233Z,32.53
2023-12-19T23:54:21.787Z,39.00
2023-12-19T23:56:50.287Z,35.25
2023-12-19T23:59:18.730Z,18.75
